Date,TemperatureHighF,TemperatureAvgF,TemperatureLowF,DewpointHighF,DewpointAvgF,DewpointLowF,HumidityHigh,HumidityAvg,HumidityLow,PressureMaxIn,PressureMinIn,WindSpeedMaxMPH,WindSpeedAvgMPH,GustSpeedMaxMPH,PrecipitationSumIn
2013-1-1,74.8,58.5,47.8,60.2,53.9,47.5,99,87,55,30.07,29.86,4,1,0,0.55
2013-1-2,78.3,64.5,55.8,66.8,60.9,55.5,99,89,66,29.92,29.80,5,2,0,0.00
2013-1-3,61.9,56.5,48.9,60.3,55.5,48.6,99,96,85,30.09,29.90,7,2,0,0.12
2013-1-4,58.6,51.6,46.8,53.1,49.6,46.0,99,93,81,30.17,30.07,7,2,0,0.00
2013-1-5,59.9,51.7,42.1,54.3,48.6,41.5,99,90,73,30.19,30.08,8,2,0,0.00
2013-1-6,64.9,56.7,50.9,57.1,54.4,50.0,99,92,74,30.08,29.93,7,2,0,0.51
2013-1-7,61.5,55.1,47.3,55.6,51.1,44.1,99,87,76,30.12,30.00,11,4,0,0.01
2013-1-8,68.5,60.6,58.1,62.5,58.2,55.9,99,92,81,30.10,30.01,5,2,0,0.06
2013-1-9,70.2,62.2,58.8,66.0,61.0,58.2,99,96,84,30.15,30.04,6,2,0,0.00
2013-1-10,71.8,64.7,59.2,66.8,63.1,58.9,99,95,81,30.15,30.06,6,2,0,0.00
2013-1-11,77.7,66.5,59.9,67.2,64.0,59.6,99,92,60,30.06,29.95,5,1,0,0.00
2013-1-12,72.9,65.2,58.6,66.5,63.3,58.3,99,94,79,29.99,29.88,4,1,0,0.00
2013-1-13,73.6,65.0,59.5,66.2,62.4,59.2,99,92,75,29.97,29.86,6,1,0,0.00
2013-1-14,77.4,65.8,57.0,66.4,62.2,56.7,99,89,65,29.98,29.89,5,2,0,0.00
2013-1-15,74.8,66.8,59.4,67.0,63.4,59.1,99,89,74,29.94,29.83,5,2,0,0.00
2013-1-16,81.9,69.6,62.1,66.5,62.4,59.1,98,80,48,29.87,29.75,6,1,0,0.00
2013-1-17,77.0,60.2,43.0,63.4,53.1,33.5,99,79,59,29.93,29.66,9,2,0,0.00
2013-1-18,57.7,51.5,41.5,47.6,42.3,33.2,83,71,64,30.20,29.94,14,7,0,0.00
2013-1-19,60.4,56.2,52.3,54.0,51.1,47.0,95,83,74,30.18,29.98,9,5,0,0.00
2013-1-20,65.1,57.8,50.2,54.0,52.1,49.3,97,83,61,30.01,29.86,8,2,0,0.00
2013-1-21,69.6,56.3,48.2,52.6,48.9,42.9,99,79,47,29.93,29.81,5,1,0,0.00
2013-1-22,62.6,52.3,45.1,42.7,34.5,28.1,72,53,28,30.10,29.87,9,2,0,0.00
2013-1-23,56.3,46.9,37.4,42.0,35.8,30.2,90,67,43,30.22,30.07,8,2,0,0.00
2013-1-24,74.1,56.8,41.9,53.9,46.0,39.3,94,70,42,30.10,29.97,7,1,0,0.00
2013-1-25,70.5,57.9,52.0,56.3,53.3,50.3,97,85,51,30.13,29.96,8,3,0,0.00
2013-1-26,76.5,62.4,49.8,59.3,55.0,47.3,99,79,55,30.03,29.93,6,1,0,0.00
2013-1-27,66.2,61.0,58.3,58.0,55.8,53.9,94,84,70,30.16,30.00,9,4,0,0.04
2013-1-28,67.5,61.9,54.5,63.3,58.6,53.7,99,89,75,30.17,30.05,7,2,0,0.00
2013-1-29,72.1,65.4,58.8,65.6,62.5,58.2,99,91,78,30.05,29.88,6,2,0,0.00
2013-1-30,74.7,68.1,60.1,65.4,62.3,56.2,96,83,68,29.88,29.55,9,3,0,0.06
2013-1-31,60.3,51.4,39.9,55.4,36.8,27.2,94,61,30,30.05,29.65,6,2,0,0.08
2013-2-1,65.8,50.1,36.5,38.8,33.0,29.0,86,55,30,30.13,30.03,9,2,0,0.00
2013-2-2,57.9,48.4,37.6,43.5,37.9,28.0,96,68,46,30.16,29.95,7,2,0,0.00
2013-2-3,66.6,50.8,39.7,41.6,35.1,26.8,99,61,24,29.99,29.83,9,2,0,0.00
2013-2-4,60.6,50.6,39.0,46.2,42.0,33.7,97,74,57,29.94,29.85,5,1,0,0.00
2013-2-5,69.3,56.1,42.8,51.5,45.2,37.8,96,70,34,29.90,29.79,4,1,0,0.00
2013-2-6,65.8,60.8,57.0,57.6,54.5,49.9,89,80,71,29.94,29.83,6,1,0,0.00
2013-2-7,69.8,65.3,60.3,63.5,61.4,57.1,96,87,75,29.89,29.58,10,2,0,0.00
2013-2-8,70.5,61.7,54.1,63.5,53.8,50.8,89,76,55,29.87,29.59,7,3,0,0.00
2013-2-9,64.8,57.1,47.8,51.5,48.1,42.8,95,73,51,30.06,29.86,10,5,0,0.00
2013-2-10,72.0,64.0,57.9,59.4,56.0,49.6,86,76,61,30.11,29.95,9,3,0,0.00
2013-2-11,81.5,67.6,61.0,63.8,60.2,56.8,94,78,52,29.98,29.83,8,2,0,0.00
2013-2-12,82.2,68.3,59.7,65.7,62.9,58.3,97,84,52,29.85,29.63,7,2,0,0.00
2013-2-13,76.8,70.4,63.5,71.4,63.7,49.0,95,80,53,29.69,29.55,6,2,0,0.34
2013-2-14,63.7,53.1,47.7,53.9,48.0,44.0,92,83,62,29.86,29.68,4,2,0,0.09
2013-2-15,60.8,50.6,42.3,48.6,44.3,40.8,96,80,61,29.90,29.77,7,2,0,0.00
2013-2-16,59.9,47.9,40.5,48.1,40.5,21.2,99,78,43,29.93,29.70,7,2,0,0.02
2013-2-17,53.1,40.9,32.9,26.5,18.0,7.8,73,43,17,30.16,29.93,11,3,0,0.00
2013-2-18,60.3,45.9,28.0,48.6,34.7,24.4,98,68,38,30.22,30.02,6,2,0,0.00
2013-2-19,79.2,64.0,49.1,60.6,51.7,43.6,91,67,40,30.03,29.77,8,2,0,0.00
2013-2-20,59.0,53.4,46.0,56.1,41.1,30.1,91,65,40,29.98,29.85,7,2,0,0.00
2013-2-21,64.4,55.3,42.4,60.9,48.8,41.5,99,81,51,29.97,29.83,7,2,0,0.00
2013-2-22,74.1,68.1,62.8,66.7,64.1,60.7,97,87,73,29.87,29.76,9,2,0,0.00
2013-2-23,84.7,73.3,61.0,66.5,63.8,59.6,96,75,48,29.75,29.59,7,2,0,0.47
2013-2-24,70.0,63.5,58.3,62.2,57.2,48.9,98,82,52,29.77,29.61,6,2,0,0.14
2013-2-25,66.7,62.9,59.5,65.1,60.8,57.2,99,93,78,29.72,29.58,12,5,0,2.15
2013-2-26,79.9,68.7,59.9,69.0,61.1,52.3,99,79,40,29.58,29.43,7,3,0,0.72
2013-2-27,71.8,60.9,53.1,53.0,46.1,41.9,81,60,35,29.76,29.59,8,2,0,0.00
2013-2-28,72.5,59.0,47.7,45.0,40.8,33.3,83,54,33,29.76,29.61,8,2,0,0.00
2013-3-1,61.9,54.3,47.7,36.7,34.7,32.3,58,48,37,29.79,29.67,8,3,0,0.00
2013-3-2,58.8,46.5,35.8,36.9,31.0,26.9,92,57,31,29.82,29.71,9,3,0,0.00
2013-3-3,47.7,41.2,31.6,30.7,27.4,24.8,80,59,42,29.93,29.79,7,3,0,0.00
2013-3-4,60.1,45.1,29.8,40.0,30.8,21.8,90,61,24,30.03,29.90,7,2,0,0.00
2013-3-5,78.3,60.3,39.2,55.2,43.3,36.5,92,58,24,29.99,29.65,7,2,0,0.00
2013-3-6,63.9,52.4,43.3,58.5,34.8,25.6,92,54,27,29.93,29.63,10,4,0,0.05
2013-3-7,57.6,46.5,37.0,42.2,37.0,29.5,96,70,53,30.03,29.93,8,3,0,0.00
2013-3-8,64.2,50.8,40.1,48.3,43.3,39.1,99,78,45,30.04,29.95,9,2,0,0.00
2013-3-9,66.7,57.5,43.9,50.8,45.2,40.2,97,65,45,30.09,29.98,11,4,0,0.00
2013-3-10,74.3,63.7,57.6,59.4,56.1,51.3,93,77,57,30.02,29.92,6,3,0,0.00
2013-3-11,74.3,65.0,57.2,60.5,58.4,56.0,97,80,57,29.92,29.68,7,2,0,0.00
2013-3-12,72.3,65.1,53.4,66.4,58.1,44.6,94,79,49,29.79,29.61,6,2,0,0.07
2013-3-13,68.5,58.4,48.7,44.6,36.3,28.9,72,46,24,29.97,29.79,11,4,0,0.00
2013-3-14,55.6,48.8,39.7,37.6,31.0,26.6,91,52,39,30.10,29.95,9,4,0,0.00
2013-3-15,66.4,51.5,36.9,45.0,38.1,26.2,98,66,27,30.08,29.90,7,2,0,0.00
2013-3-16,84.0,63.8,46.6,49.7,44.5,39.8,92,54,28,29.95,29.76,7,2,0,0.00
2013-3-17,81.0,62.9,47.7,58.3,48.8,40.3,88,62,25,29.91,29.77,7,2,0,0.00
2013-3-18,84.2,68.1,60.6,62.3,59.0,54.9,93,75,39,29.84,29.62,5,1,0,0.00
2013-3-19,83.5,68.0,59.2,62.5,57.4,54.0,93,71,40,29.79,29.65,6,2,0,0.00
2013-3-20,66.6,59.4,48.9,56.7,51.6,47.2,96,77,60,29.79,29.61,12,3,0,0.06
2013-3-21,69.3,54.7,43.9,47.6,33.8,22.1,97,52,17,29.74,29.63,9,2,0,0.00
2013-3-22,63.5,56.0,44.6,49.6,38.8,31.8,73,54,37,29.86,29.72,8,4,0,0.00
2013-3-23,70.5,62.0,57.0,65.6,59.5,50.4,99,92,73,29.80,29.56,10,2,0,2.29
2013-3-24,85.3,71.2,61.9,72.3,64.9,60.3,99,83,46,29.58,29.27,8,3,0,0.60
2013-3-25,68.2,59.9,51.3,60.0,36.5,26.1,80,45,22,29.81,29.35,9,4,0,0.00
2013-3-26,59.4,48.7,39.7,28.8,25.8,21.7,57,41,29,30.04,29.80,10,4,0,0.00
2013-3-27,55.9,46.1,36.0,38.4,31.5,26.4,89,58,36,30.11,30.00,9,3,0,0.00
2013-3-28,66.9,50.2,37.9,41.9,37.0,30.3,93,66,27,30.10,30.01,8,2,0,0.00
2013-3-29,70.5,55.2,42.3,47.3,42.4,32.4,96,67,25,30.14,30.00,7,2,0,0.00
2013-3-30,80.1,60.2,44.6,56.7,47.3,39.5,93,67,24,30.06,29.89,6,1,0,0.00
2013-3-31,85.6,68.1,53.8,58.0,49.9,41.6,79,55,32,29.91,29.72,6,2,0,0.00
2013-4-1,83.1,70.4,61.0,62.9,59.2,54.5,87,69,46,29.77,29.64,4,1,0,0.00
2013-4-2,71.6,63.5,55.4,59.4,55.0,51.1,93,76,51,29.90,29.73,10,2,0,0.00
2013-4-3,75.4,63.8,55.0,63.7,59.9,53.9,98,88,65,29.89,29.80,10,3,0,0.28
2013-4-4,78.6,69.9,64.0,68.9,64.7,62.5,97,85,67,29.84,29.61,8,2,0,0.51
2013-4-5,68.0,58.4,53.8,63.1,55.4,51.1,95,90,84,29.81,29.58,8,3,0,0.26
2013-4-6,69.4,61.9,51.6,57.7,53.7,48.8,92,75,62,29.95,29.80,12,5,0,0.00
2013-4-7,77.5,67.0,59.7,64.2,60.3,57.6,95,80,60,29.99,29.87,8,2,0,0.00
2013-4-8,77.4,66.2,55.8,67.6,61.0,55.0,97,84,65,29.95,29.86,7,2,0,0.00
2013-4-9,80.1,69.3,60.8,68.7,64.1,59.7,97,85,67,29.98,29.86,6,2,0,0.00
2013-4-10,80.1,70.7,61.3,68.6,65.1,59.9,97,83,68,29.92,29.78,9,2,0,0.00
2013-4-11,82.8,72.9,68.7,71.6,68.2,65.9,95,86,68,29.78,29.58,6,2,0,0.00
2013-4-12,89.8,77.7,70.3,73.3,68.6,64.1,92,75,51,29.64,29.51,6,2,0,0.00
2013-4-13,73.6,68.7,61.9,65.6,55.4,45.4,84,64,40,29.79,29.63,8,2,0,0.00
2013-4-14,73.8,65.0,58.1,65.0,61.2,56.4,96,88,72,29.80,29.65,7,2,0,1.33
2013-4-15,86.4,68.5,61.3,67.0,63.7,60.4,97,86,48,29.90,29.59,7,2,0,0.00
2013-4-16,78.1,69.5,63.5,68.3,65.3,62.3,96,87,72,29.97,29.86,9,3,0,0.00
2013-4-17,74.8,69.8,65.3,68.3,65.8,63.8,96,87,78,29.96,29.86,8,2,0,0.00
2013-4-18,84.7,73.2,64.4,72.5,67.9,62.9,96,84,66,29.87,29.74,7,2,0,0.00
2013-4-19,84.0,74.7,68.5,73.1,70.0,65.1,94,86,70,29.78,29.63,6,2,0,0.45
2013-4-20,65.8,57.3,51.3,62.8,53.4,48.9,95,87,75,29.97,29.74,9,3,0,0.71
2013-4-21,69.6,65.3,59.9,62.5,58.7,53.0,89,79,71,29.99,29.87,14,7,0,0.00
2013-4-22,66.0,63.2,60.1,63.0,59.5,56.1,93,88,77,29.93,29.82,15,7,0,0.34
2013-4-23,70.7,65.0,59.5,59.3,57.1,55.1,89,76,64,29.96,29.84,12,5,0,0.00
2013-4-24,79.9,68.6,57.7,67.3,62.5,55.8,96,82,63,29.95,29.86,8,2,0,0.00
2013-4-25,86.5,71.9,59.7,69.7,64.4,58.0,95,79,51,29.98,29.87,6,1,0,0.00
2013-4-26,78.3,69.9,61.5,67.3,62.9,56.9,89,79,64,30.07,29.93,10,3,0,0.00
2013-4-27,80.4,71.2,64.8,66.8,64.2,61.7,91,79,60,30.04,29.93,9,4,0,0.00
2013-4-28,85.1,72.8,66.4,69.0,65.7,63.0,93,79,57,29.94,29.77,5,2,0,0.00
2013-4-29,82.6,71.4,64.4,70.0,65.6,62.0,94,83,58,29.80,29.68,6,1,0,0.61
2013-4-30,78.3,69.9,63.9,69.6,65.3,62.2,96,86,71,29.81,29.71,10,3,0,0.01
2013-5-1,77.2,70.1,66.2,68.3,64.9,61.4,93,84,73,29.84,29.74,13,6,0,0.00
2013-5-2,70.0,68.5,66.9,67.8,66.2,64.6,95,92,89,29.81,29.67,18,7,0,3.00
2013-5-3,70.2,68.0,65.3,65.8,64.3,61.7,95,88,75,29.69,29.59,20,11,0,1.39
2013-5-4,70.5,68.3,65.3,67.8,65.3,61.3,95,90,75,29.59,29.47,20,9,0,0.78
2013-5-5,81.0,69.3,59.9,68.1,58.2,49.3,96,72,34,29.65,29.46,8,2,0,0.13
2013-5-6,79.7,67.3,55.6,56.3,50.4,45.3,92,58,31,29.75,29.62,4,1,0,0.00
2013-5-7,81.5,68.6,54.5,59.6,55.3,50.4,87,64,41,29.79,29.66,7,2,0,0.00
2013-5-8,81.0,69.2,57.2,65.7,60.7,55.2,94,76,51,29.87,29.76,6,2,0,0.00
2013-5-9,87.6,73.0,62.2,70.6,64.5,59.0,95,76,39,29.90,29.83,6,2,0,0.00
2013-5-10,89.4,74.1,60.8,72.2,66.3,58.5,93,78,43,29.90,29.76,5,2,0,0.00
2013-5-11,93.9,76.2,67.1,72.2,67.7,64.7,96,78,45,29.81,29.67,5,1,0,0.65
2013-5-12,90.0,76.1,66.0,70.6,65.7,58.8,97,73,44,29.80,29.68,5,1,0,0.00
2013-5-13,82.9,69.9,58.1,59.7,51.4,40.4,90,56,24,29.92,29.76,6,2,0,0.00
2013-5-14,79.5,67.5,54.5,57.1,52.4,47.9,91,61,33,30.02,29.92,7,2,0,0.00
2013-5-15,85.1,71.7,56.3,63.6,57.8,51.0,92,65,31,30.00,29.84,7,2,0,0.00
2013-5-16,86.7,73.2,61.7,70.1,64.7,58.4,90,76,47,29.90,29.79,8,2,0,0.00
2013-5-17,86.7,74.5,62.6,70.3,66.6,60.8,94,78,50,29.91,29.82,6,2,0,0.00
2013-5-18,88.2,76.7,66.6,73.8,70.2,64.8,95,81,58,29.91,29.81,5,2,0,0.05
2013-5-19,86.2,76.4,68.9,74.4,70.7,67.0,94,83,64,29.88,29.79,7,2,0,0.01
2013-5-20,81.9,75.2,69.6,74.5,71.0,67.5,95,87,78,29.88,29.79,6,1,0,0.02
2013-5-21,83.5,76.0,69.1,75.1,70.9,67.9,96,85,62,29.85,29.73,11,2,0,0.00
2013-5-22,86.9,76.4,67.6,75.3,71.3,66.1,97,85,67,29.79,29.69,8,2,0,0.00
2013-5-23,91.9,77.7,69.4,72.8,70.4,68.1,96,80,50,29.76,29.67,7,2,0,0.02
2013-5-24,94.8,80.8,69.8,71.3,64.6,53.7,95,64,30,29.88,29.71,6,2,0,0.00
2013-5-25,83.7,75.5,67.3,66.2,57.3,53.5,93,55,37,30.05,29.88,11,4,0,0.00
2013-5-26,92.1,75.0,60.4,62.9,56.9,51.6,89,56,32,30.03,29.93,8,2,0,0.00
2013-5-27,89.8,75.1,60.8,67.5,63.8,58.5,92,70,45,30.02,29.91,7,2,0,0.00
2013-5-28,87.8,78.7,72.7,69.6,67.1,63.9,81,68,51,29.98,29.91,10,4,0,0.00
2013-5-29,89.1,80.0,73.8,75.4,72.7,68.9,88,79,61,29.97,29.88,8,4,0,0.02
2013-5-30,90.0,80.5,74.1,75.9,73.4,71.0,93,80,63,29.98,29.88,7,3,0,0.11
2013-5-31,90.7,80.6,73.4,74.7,72.5,69.3,89,77,58,29.96,29.87,9,3,0,0.00
2013-6-1,91.9,81.1,75.6,74.6,72.7,70.4,87,77,55,29.89,29.80,10,3,0,0.00
2013-6-2,90.0,81.3,75.6,77.5,74.9,72.1,90,82,66,29.84,29.67,9,2,0,0.00
2013-6-3,97.3,82.6,73.0,78.5,74.6,71.2,94,79,49,29.72,29.63,6,1,0,0.01
2013-6-4,81.0,76.8,72.5,75.3,72.9,69.6,93,88,77,29.78,29.69,4,1,0,0.20
2013-6-5,86.4,76.1,72.1,74.9,72.1,70.2,96,88,63,29.78,29.69,4,1,0,0.02
2013-6-6,76.6,74.2,71.2,75.0,72.4,69.4,97,94,90,29.71,29.41,12,3,0,2.29
2013-6-7,92.7,80.5,71.4,76.5,72.3,69.3,96,78,54,29.68,29.37,6,2,0,0.04
2013-6-8,92.8,80.6,72.3,79.0,74.0,70.5,95,82,50,29.84,29.67,6,2,0,0.00
2013-6-9,90.9,79.9,72.5,77.6,73.9,70.7,94,83,55,29.90,29.80,9,2,0,0.02
2013-6-10,90.7,81.3,74.8,78.9,75.5,72.5,94,83,63,29.87,29.76,7,2,0,0.00
2013-6-11,98.8,81.3,73.6,78.8,74.2,71.1,94,81,46,29.86,29.76,4,1,0,0.32
2013-6-12,103.1,83.8,72.7,79.5,75.3,70.7,96,78,43,29.82,29.71,6,2,0,0.00
2013-6-13,105.1,86.7,76.6,80.2,76.1,73.1,89,73,42,29.75,29.59,4,1,0,0.02
2013-6-14,96.1,81.0,71.2,79.5,74.8,69.1,96,83,55,29.70,29.54,8,2,0,1.12
2013-6-15,89.4,82.5,77.2,73.4,70.4,68.5,88,68,55,29.86,29.70,10,4,0,0.00
2013-6-16,92.5,82.1,75.6,73.2,71.2,68.4,83,71,51,29.90,29.81,9,3,0,0.00
2013-6-17,91.2,83.1,76.6,79.1,75.8,72.5,90,79,67,29.86,29.72,6,2,0,0.00
2013-6-18,98.6,85.3,72.3,77.1,72.3,69.5,94,68,43,29.79,29.66,4,1,0,0.00
2013-6-19,99.9,81.8,72.0,79.2,74.0,69.5,95,78,40,29.79,29.69,6,2,0,1.19
2013-6-20,84.4,80.2,77.0,75.0,72.4,70.7,90,77,71,29.87,29.81,8,4,0,0.03
2013-7-3,77.7,77.4,77.0,72.6,71.7,71.1,85,83,82,29.92,29.90,4,2,0,0.00
2013-7-4,90.0,81.7,75.2,75.8,72.7,70.4,87,75,61,29.94,29.87,4,2,0,0.00
2013-7-5,90.7,83.5,76.8,75.9,74.0,72.3,86,74,62,29.96,29.87,8,2,0,0.00
2013-7-6,94.5,81.9,74.5,77.2,73.7,71.3,91,77,57,29.93,29.84,7,2,0,0.00
2013-7-7,96.1,81.9,72.9,78.4,73.4,69.5,91,76,57,29.94,29.85,11,2,0,0.00
2013-7-8,92.8,81.5,73.4,76.8,73.6,70.3,91,78,60,29.96,29.87,7,2,0,0.00
2013-7-9,92.8,82.4,73.8,77.8,73.2,70.1,91,75,59,29.96,29.85,7,1,0,0.00
2013-7-10,94.1,81.9,72.3,77.0,72.5,68.9,90,74,58,29.87,29.73,8,2,0,0.00
2013-7-11,95.0,81.4,73.8,76.8,72.4,68.8,88,75,56,29.80,29.63,5,1,0,0.00
2013-7-12,94.6,79.1,73.8,76.8,71.8,69.1,90,79,56,29.71,29.63,6,1,0,0.19
2013-7-13,91.2,78.4,71.1,75.9,72.0,67.7,92,81,61,29.78,29.66,7,1,0,0.25
2013-7-14,88.2,78.5,72.9,76.2,72.0,70.0,92,81,66,29.91,29.75,7,2,0,0.00
2013-7-15,89.2,80.0,73.4,77.2,73.2,70.0,91,80,67,29.94,29.86,9,3,0,0.09
2013-7-16,89.6,82.9,78.1,77.4,74.5,72.6,85,76,65,29.98,29.90,10,4,0,0.00
2013-7-17,90.5,83.2,78.1,76.1,73.9,71.4,84,74,63,29.98,29.86,9,4,0,0.00
2013-7-18,91.9,82.0,73.6,76.5,72.8,69.8,89,74,61,29.91,29.81,6,2,0,0.00
2013-7-19,90.3,80.7,72.7,76.2,71.8,68.0,88,75,60,29.90,29.80,5,1,0,0.01
2013-7-20,91.8,77.3,71.8,76.8,70.9,67.8,90,81,61,29.88,29.78,5,1,0,0.25
2013-7-21,97.0,79.7,72.0,77.0,71.7,68.9,90,78,50,29.87,29.76,4,1,0,0.03
2013-7-22,97.9,80.4,75.0,76.9,73.2,71.4,90,80,47,29.87,29.77,4,1,0,0.29
2013-7-23,95.5,80.1,73.8,78.4,72.8,70.1,89,79,57,29.79,29.66,4,2,0,0.13
2013-7-24,90.9,80.1,73.4,76.3,72.5,68.3,89,79,62,29.68,29.55,5,2,0,0.08
2013-7-25,95.0,81.1,72.7,78.4,73.0,68.6,88,77,53,29.71,29.58,6,1,0,0.00
2013-7-26,92.3,81.9,74.8,78.4,75.3,71.7,91,81,64,29.78,29.69,8,2,0,0.00
2013-7-27,95.0,82.2,75.4,79.9,74.8,69.7,91,79,62,29.77,29.64,6,1,0,0.00
2013-7-28,90.3,79.7,73.0,77.4,73.3,69.7,90,81,62,29.81,29.67,7,1,0,0.36
2013-7-29,93.4,80.9,71.6,78.9,73.7,68.8,93,80,62,29.92,29.78,6,1,0,0.00
2013-7-30,98.1,83.6,75.0,79.8,75.3,71.5,89,77,56,29.93,29.84,6,1,0,0.00
2013-7-31,96.4,78.5,72.7,79.7,73.3,69.9,91,85,59,29.89,29.78,4,0,0,0.48
2013-8-1,93.9,75.9,71.1,77.7,71.3,68.3,92,86,59,29.81,29.69,8,1,0,1.42
2013-8-2,89.6,80.4,71.4,78.0,73.9,68.9,93,81,69,29.79,29.70,4,1,0,0.01
2013-8-3,97.2,81.6,73.9,80.4,74.9,71.1,92,81,54,29.80,29.72,8,1,0,0.82
2013-8-4,97.9,85.1,76.3,80.0,76.2,73.5,91,76,51,29.80,29.68,5,1,0,0.00
2013-8-5,97.5,84.6,77.9,79.0,76.2,73.7,88,77,55,29.76,29.67,9,2,0,0.00
2013-8-6,96.1,84.3,78.3,80.9,76.6,74.1,89,78,62,29.77,29.66,8,2,0,0.00
2013-8-7,92.3,83.9,79.9,79.3,75.6,73.9,84,77,65,29.78,29.70,9,4,0,0.00
2013-8-8,96.1,85.0,78.8,81.4,76.5,74.2,88,76,63,29.82,29.72,6,2,0,0.00
2013-8-9,95.9,84.8,79.7,79.9,75.7,73.1,84,75,58,29.86,29.74,9,3,0,0.00
2013-8-10,93.6,84.4,75.9,79.2,75.9,72.4,90,76,58,29.92,29.83,7,2,0,0.00
2013-8-11,93.9,84.3,76.5,79.6,76.1,73.0,89,77,60,29.94,29.83,7,1,0,0.00
2013-8-12,93.7,84.3,76.3,79.8,75.6,70.9,88,76,63,29.89,29.74,5,1,0,0.00
2013-8-13,96.6,84.3,76.1,80.1,75.4,71.4,86,75,54,29.79,29.64,4,1,0,0.00
2013-8-14,99.3,82.9,73.2,80.6,74.6,68.1,89,77,46,29.76,29.62,6,1,0,0.06
2013-8-15,92.8,80.7,74.3,78.9,73.8,69.5,91,80,64,29.80,29.66,4,1,0,0.05
2013-8-16,93.0,78.9,72.5,78.0,73.1,69.7,92,83,56,29.82,29.70,4,1,0,1.21
2013-8-17,88.0,79.3,74.3,77.8,74.6,70.9,93,86,70,29.87,29.76,6,1,0,0.09
2013-8-18,91.6,82.4,75.2,80.2,76.1,72.4,92,82,68,29.89,29.81,7,2,0,0.05
2013-8-19,92.5,83.8,76.8,80.0,76.5,72.7,91,79,64,29.87,29.74,5,1,0,0.00
2013-8-20,94.8,84.0,74.3,80.7,76.2,71.0,91,78,64,29.89,29.78,7,2,0,0.00
2013-8-21,92.5,83.0,77.5,79.9,75.9,72.3,86,80,67,29.94,29.84,6,2,0,0.28
2013-8-22,81.5,77.8,72.7,77.4,73.6,69.6,92,87,78,29.92,29.77,10,1,0,0.82
2013-8-23,87.4,79.2,75.6,77.9,74.5,72.7,92,86,72,29.81,29.75,5,1,0,0.22
2013-8-24,85.1,79.5,74.1,77.1,73.8,71.6,92,83,73,29.91,29.78,7,2,0,0.00
2013-8-25,84.7,80.1,74.8,75.6,72.7,70.0,87,79,73,29.97,29.88,12,6,0,0.09
2013-8-26,87.4,81.6,77.7,76.4,73.3,70.3,83,76,64,29.95,29.82,13,6,0,0.00
2013-8-27,89.4,82.5,77.0,74.5,71.1,67.7,80,69,55,29.87,29.76,9,3,0,0.00
2013-8-28,90.9,80.1,70.2,72.6,69.5,66.8,90,71,52,29.82,29.72,7,1,0,0.00
2013-8-29,99.7,83.9,72.1,76.3,70.6,66.9,87,67,39,29.79,29.65,4,1,0,0.00
2013-8-30,96.4,83.3,76.1,80.1,73.9,69.7,86,74,49,29.73,29.61,5,1,0,0.00
2013-8-31,91.8,81.6,74.5,79.6,73.8,69.3,90,78,66,29.73,29.61,7,1,0,0.00
2013-9-1,98.4,81.1,72.9,78.4,73.1,69.1,91,78,44,29.74,29.63,7,1,0,0.46
2013-9-2,98.6,80.0,72.1,79.6,73.4,70.0,93,82,52,29.75,29.64,5,1,0,0.57
2013-9-3,97.5,82.0,73.8,79.2,74.4,71.3,93,79,52,29.76,29.64,5,1,0,0.00
2013-9-4,93.2,82.4,74.7,79.3,74.6,70.1,91,78,64,29.84,29.72,5,1,0,0.00
2013-9-5,94.6,82.6,74.5,78.9,74.8,71.0,90,78,57,29.87,29.76,4,1,0,0.00
2013-9-6,90.0,80.1,73.8,77.7,73.4,70.0,89,80,65,29.83,29.74,8,1,0,0.00
2013-9-7,90.5,81.1,72.9,75.1,72.3,69.5,91,76,59,29.80,29.70,10,4,0,0.00
2013-9-8,89.8,82.6,76.6,72.4,70.4,68.4,81,67,55,29.76,29.67,9,4,0,0.00
2013-9-9,91.6,81.0,71.2,74.6,70.9,67.8,90,72,57,29.84,29.72,8,3,0,0.00
2013-9-10,89.6,83.6,79.9,74.3,72.2,69.9,77,69,57,29.92,29.80,11,5,0,0.00
2013-9-11,89.2,82.7,79.2,76.6,73.6,70.5,81,74,63,29.89,29.79,11,4,0,0.00
2013-9-12,88.2,80.1,73.9,77.0,72.7,68.6,92,79,56,29.82,29.65,7,1,0,0.92
2013-9-13,98.2,81.9,72.1,76.2,72.0,68.3,92,74,42,29.68,29.52,5,1,0,0.00
2013-9-14,92.1,81.8,73.4,78.3,73.8,69.6,88,77,63,29.76,29.56,6,1,0,0.01
2013-9-15,92.1,81.6,73.6,79.0,74.7,70.7,92,80,64,29.85,29.74,7,2,0,0.14
2013-9-16,92.7,82.7,73.8,78.5,74.8,70.4,91,78,62,29.87,29.77,8,2,0,0.00
2013-9-17,86.7,81.1,75.4,77.3,73.8,70.9,88,79,70,29.87,29.76,14,5,0,0.16
2013-9-18,84.0,78.9,73.8,73.9,71.7,69.5,91,79,70,29.87,29.78,15,8,0,0.81
2013-9-19,86.9,80.8,76.1,74.3,71.1,67.9,83,73,62,29.86,29.77,11,5,0,0.04
2013-9-20,86.7,78.3,71.2,73.5,70.0,67.4,91,76,59,29.82,29.68,7,2,0,0.57
2013-9-21,90.0,78.4,68.9,74.3,70.3,66.2,92,77,59,29.71,29.50,5,1,0,0.00
2013-9-22,86.7,76.9,72.3,76.0,71.4,69.0,91,83,69,29.61,29.48,5,0,0,0.16
2013-9-23,84.2,76.6,71.8,75.4,71.7,69.3,92,85,74,29.72,29.59,6,0,0,0.28
2013-9-24,80.4,75.5,72.7,75.0,72.4,70.1,93,90,81,29.72,29.56,5,1,0,0.97
2013-9-25,82.8,77.1,74.1,76.1,73.2,71.5,93,88,79,29.58,29.48,4,0,0,0.11
2013-9-26,79.3,74.6,70.9,74.3,70.9,67.5,93,88,77,29.66,29.49,8,2,0,0.02
2013-9-27,81.1,75.6,69.8,73.1,69.7,66.1,90,82,75,29.76,29.63,15,5,0,0.53
2013-9-28,79.7,76.0,72.5,70.7,69.2,67.3,90,80,72,29.83,29.72,14,6,0,0.05
2013-9-29,82.8,76.4,69.8,72.2,69.5,67.0,91,79,69,29.79,29.72,10,6,0,0.60
2013-9-30,82.6,76.6,74.3,69.4,66.7,63.0,81,72,58,29.82,29.69,10,4,0,0.00
2013-10-1,81.1,75.3,70.3,69.6,65.4,63.1,85,72,61,29.87,29.77,7,3,0,0.00
2013-10-2,84.2,76.0,67.8,69.4,66.7,63.0,86,73,61,29.86,29.80,10,4,0,0.00
2013-10-3,84.7,78.7,74.7,75.1,72.2,69.3,86,81,72,29.88,29.78,9,4,0,0.00
2013-10-4,86.5,78.9,72.3,77.1,73.5,69.5,91,84,73,29.88,29.78,8,3,0,0.00
2013-10-5,84.6,78.3,71.6,76.0,72.9,69.1,92,84,75,29.85,29.76,9,3,0,0.00
2013-10-6,85.8,79.4,73.6,77.5,74.4,71.1,93,85,74,29.77,29.63,6,2,0,0.64
2013-10-7,86.5,77.1,72.7,77.6,72.9,69.3,92,87,74,29.63,29.51,8,2,0,2.07
2013-10-8,82.0,73.9,69.6,75.6,70.2,65.7,93,89,80,29.77,29.52,13,5,0,1.04
2013-10-9,70.7,64.8,61.5,65.9,61.9,59.5,93,90,82,29.86,29.74,5,2,0,0.03
2013-10-10,79.7,69.5,64.0,68.5,63.8,61.9,94,83,63,29.84,29.72,8,1,0,0.01
2013-10-11,87.6,71.8,63.1,67.3,63.4,61.1,94,77,45,29.80,29.67,5,1,0,0.00
2013-10-12,88.2,72.3,62.6,66.6,63.1,59.0,93,76,41,29.81,29.71,5,1,0,0.00
2013-10-13,85.3,72.7,63.5,71.0,65.3,60.8,92,79,49,29.86,29.76,9,2,0,0.00
2013-10-14,77.5,71.8,68.0,70.1,67.2,65.2,92,86,77,29.83,29.74,9,3,0,0.19
2013-10-15,75.4,72.4,68.4,70.0,68.4,66.0,93,87,83,29.77,29.69,13,6,0,0.20
2013-10-16,81.5,74.8,68.7,72.3,68.9,65.0,90,82,73,29.75,29.68,8,3,0,0.00
2013-10-17,82.6,75.2,68.2,74.1,70.1,65.6,93,84,72,29.74,29.64,6,1,0,0.00
2013-10-18,88.5,76.8,69.4,76.5,71.7,67.2,93,85,61,29.75,29.64,6,1,0,0.00
2013-10-19,91.9,78.0,72.0,77.2,72.7,69.2,92,85,57,29.71,29.60,4,1,0,0.10
2013-10-20,77.5,72.6,67.3,70.9,66.4,63.0,93,81,67,29.76,29.64,7,2,0,0.00
2013-10-21,81.7,75.9,73.6,74.9,71.1,68.5,89,85,79,29.79,29.70,9,4,0,0.00
2013-10-22,80.4,75.3,71.2,74.4,71.8,69.1,93,89,81,29.73,29.56,6,2,0,0.91
2013-10-23,75.0,67.1,59.4,68.4,58.5,49.1,95,76,48,29.80,29.56,4,2,0,0.07
2013-10-24,69.8,60.5,54.1,58.4,50.8,44.5,92,71,53,29.95,29.79,6,2,0,0.00
2013-10-25,72.0,61.2,52.3,56.4,52.0,47.6,94,74,54,30.04,29.94,10,2,0,0.00
2013-10-26,72.5,63.1,54.7,58.8,53.3,47.1,90,71,58,30.02,29.90,8,2,0,0.00
2013-10-27,71.8,59.8,49.5,53.4,49.7,43.5,94,73,38,29.95,29.87,6,1,0,0.00
2013-10-28,75.4,65.3,54.1,63.7,58.5,51.3,95,80,63,30.01,29.90,8,2,0,0.00
2013-10-29,78.1,69.8,60.8,67.1,63.0,57.7,91,80,68,30.06,29.95,10,3,0,0.00
2013-10-30,78.3,73.4,69.3,71.0,66.0,64.0,84,78,72,30.03,29.92,8,4,0,0.00
2013-10-31,82.8,74.9,66.7,72.5,69.1,64.0,92,83,67,29.93,29.73,6,1,0,0.00
2013-11-1,85.8,76.2,69.6,71.3,69.1,66.4,90,80,61,29.76,29.56,6,1,0,0.00
2013-11-2,75.4,65.8,57.2,70.9,63.2,55.5,94,91,78,29.73,29.53,4,0,0,2.75
2013-11-3,70.9,62.6,52.7,58.5,51.8,46.6,94,70,46,29.97,29.72,14,5,0,0.00
2013-11-4,74.3,68.9,66.2,64.5,60.1,52.1,88,74,60,30.04,29.94,17,9,0,0.06
2013-11-5,72.3,69.0,65.8,67.0,65.1,62.8,91,88,81,30.05,29.95,14,7,0,0.14
2013-11-6,76.3,71.0,67.5,69.7,66.9,64.1,92,87,79,29.95,29.84,7,3,0,0.03
2013-11-7,77.0,69.4,66.0,67.7,65.4,63.0,92,87,72,29.84,29.73,5,1,0,0.00
2013-11-8,68.7,64.3,60.4,64.3,55.4,50.2,86,73,69,29.99,29.79,13,7,0,0.00
2013-11-9,74.5,68.4,64.8,64.1,60.6,55.5,89,76,63,30.02,29.93,10,5,0,0.00
2013-11-10,72.7,65.9,59.2,66.0,61.7,56.3,93,87,75,30.00,29.91,7,2,0,0.00
2013-11-11,74.1,65.4,57.2,64.4,60.6,55.2,93,85,67,29.99,29.89,7,2,0,0.00
2013-11-12,77.0,66.8,60.4,65.6,60.9,49.4,91,82,67,29.91,29.79,8,1,0,0.00
2013-11-13,59.9,53.1,49.8,49.0,44.5,40.6,83,73,66,30.22,29.93,17,8,0,0.00
2013-11-14,66.0,61.5,54.0,59.7,55.1,46.0,86,80,71,30.17,30.00,12,5,0,0.00
2013-11-15,69.1,63.5,57.2,65.1,60.2,54.2,92,89,82,30.03,29.85,5,0,0,0.06
2013-11-16,73.8,67.4,62.2,67.6,64.0,59.8,93,89,81,29.97,29.86,7,2,0,0.00
2013-11-17,75.9,69.9,66.4,69.6,66.7,63.7,93,90,81,29.89,29.77,5,1,0,0.43
2013-11-18,84.2,72.7,67.3,75.0,69.1,65.2,93,89,73,29.79,29.64,3,0,0,0.30
2013-11-19,70.7,64.2,55.0,68.6,57.5,47.8,93,79,72,29.82,29.66,12,4,0,0.00
2013-11-20,68.5,65.5,63.1,63.8,61.8,59.2,92,88,81,29.96,29.79,9,5,0,0.62
2013-11-21,71.8,66.7,64.4,66.3,63.4,62.0,92,89,83,30.04,29.93,8,3,0,0.01
2013-11-22,77.5,68.3,61.9,68.5,63.8,58.9,92,86,71,30.03,29.89,5,1,0,0.00
2013-11-23,75.0,66.9,59.2,67.2,62.5,56.9,93,86,75,29.91,29.77,4,1,0,0.01
2013-11-24,64.2,57.6,53.8,58.9,49.0,42.6,85,73,64,30.15,29.83,14,7,0,0.00
2013-11-25,69.6,63.3,56.1,60.2,55.9,46.8,82,77,68,30.13,29.89,14,5,0,0.01
2013-11-26,71.6,67.6,65.1,68.3,64.0,59.5,92,88,81,29.90,29.44,8,1,0,0.98
2013-11-27,70.7,55.1,38.8,68.3,49.7,32.5,92,82,71,30.02,29.36,7,2,0,0.19
2013-11-28,55.2,44.6,34.7,45.7,38.4,29.8,88,79,66,30.20,30.02,10,2,0,0.00
2013-11-29,61.2,55.4,44.1,53.2,49.8,40.8,91,82,75,30.22,30.15,11,4,0,0.00
2013-11-30,60.3,57.9,55.4,56.4,54.2,51.5,89,87,83,30.18,30.02,12,5,0,0.01
2013-12-1,65.3,59.1,54.9,58.0,54.7,52.3,91,85,76,30.01,29.78,6,1,0,0.00
2013-12-2,61.7,56.0,50.7,55.4,52.0,47.9,92,87,76,29.77,29.60,7,1,0,0.00
2013-12-3,66.2,58.5,49.5,59.4,54.6,47.3,93,87,76,29.76,29.66,5,1,0,0.00
2013-12-4,75.4,64.5,57.2,65.7,60.3,54.6,92,87,70,29.88,29.73,3,0,0,0.00
2013-12-5,74.1,22.4,-40.0,67.2,18.8,-44.0,92,85,79,29.95,29.85,6,1,0,0.00
2013-12-6,73.4,68.7,61.5,68.9,64.7,58.8,92,87,84,29.94,29.85,5,1,0,0.00
2013-12-7,109.9,46.3,-40.0,99.9,36.7,-99.9,92,79,84,30.00,29.90,5,1,0,0.00
2013-12-8,81.9,64.3,62.4,77.6,61.3,59.6,92,90,87,30.03,29.92,5,2,0,0.00
2013-12-9,68.7,65.8,60.6,65.4,62.7,58.3,93,90,86,29.96,29.83,6,1,0,0.00
2013-12-10,113.5,33.0,-39.3,99.9,29.9,-42.5,92,88,83,30.03,29.78,5,1,0,0.25
2013-12-11,-33.5,-39.4,-40.0,-35.8,-41.6,-42.2,88,88,88,30.08,29.99,9,4,0,0.00
2013-12-12,-40.0,-40.0,-40.0,-42.2,-42.2,-42.2,88,88,88,30.16,30.01,9,2,0,0.00
2014-1-1,58.3,55.8,57.4,58.0,51.8,-99.9,99,95,99,29.97,29.87,5,-34,0,0.58
2014-1-2,63.5,59.4,52.7,63.2,58.9,49.8,99,98,89,29.86,29.52,6,2,0,1.77